sensor_id;sensor_type;location;lat;lon;timestamp;temperature;humidity
21261;DHT22;10788;47.930;9.766;2023-12-20T00:00:41;3.60;99.90
21261;DHT22;10788;47.930;9.766;2023-12-20T00:03:07;3.60;99.90
21261;DHT22;10788;47.930;9.766;2023-12-20T00:05:32;3.50;99.90
21261;DHT22;10788;47.930;9.766;2023-12-20T00:07:58;3.70;99.90
21261;DHT22;10788;47.930;9.766;2023-12-20T00:10:24;3.60;99.90
21261;DHT22;10788;47.930;9.766;2023-12-20T00:12:50;3.60;99.90
21261;DHT22;10788;47.930;9.766;2023-12-20T00:15:15;3.50;99.90
21261;DHT22;10788;47.930;9.766;2023-12-20T00:17:41;3.50;99.90
21261;DHT22;10788;47.930;9.766;2023-12-20T00:20:07;3.40;99.90
21261;DHT22;10788;47.930;9.766;2023-12-20T00:22:32;3.40;99.90
21261;DHT22;10788;47.930;9.766;2023-12-20T00:24:58;3.40;99.90
21261;DHT22;10788;47.930;9.766;2023-12-20T00:27:24;3.40;99.90
21261;DHT22;10788;47.930;9.766;2023-12-20T00:29:49;3.40;99.90
21261;DHT22;10788;47.930;9.766;2023-12-20T00:32:16;3.50;99.90
21261;DHT22;10788;47.930;9.766;2023-12-20T00:34:42;3.50;99.90
21261;DHT22;10788;47.930;9.766;2023-12-20T00:37:08;3.40;99.90
21261;DHT22;10788;47.930;9.766;2023-12-20T00:39:33;3.40;99.90
21261;DHT22;10788;47.930;9.766;2023-12-20T00:41:59;3.40;99.90
21261;DHT22;10788;47.930;9.766;2023-12-20T00:44:24;3.50;99.90
21261;DHT22;10788;47.930;9.766;2023-12-20T00:46:50;3.50;99.90
21261;DHT22;10788;47.930;9.766;2023-12-20T00:49:15;3.50;99.90
21261;DHT22;10788;47.930;9.766;2023-12-20T00:51:41;3.50;99.90
21261;DHT22;10788;47.930;9.766;2023-12-20T00:54:06;3.50;99.90
21261;DHT22;10788;47.930;9.766;2023-12-20T00:56:32;3.40;99.90
21261;DHT22;10788;47.930;9.766;2023-12-20T00:58:58;3.50;99.90
21261;DHT22;10788;47.930;9.766;2023-12-20T01:01:23;3.50;99.90
21261;DHT22;10788;47.930;9.766;2023-12-20T01:03:49;3.50;99.90
21261;DHT22;10788;47.930;9.766;2023-12-20T01:06:16;3.50;99.90
21261;DHT22;10788;47.930;9.766;2023-12-20T01:08:42;3.50;99.90
21261;DHT22;10788;47.930;9.766;2023-12-20T01:11:08;3.50;99.90
21261;DHT22;10788;47.930;9.766;2023-12-20T01:13:34;3.50;99.90
21261;DHT22;10788;47.930;9.766;2023-12-20T01:16:00;3.50;99.90
21261;DHT22;10788;47.930;9.766;2023-12-20T01:18:26;3.50;99.90
21261;DHT22;10788;47.930;9.766;2023-12-20T01:20:52;3.40;99.90
21261;DHT22;10788;47.930;9.766;2023-12-20T01:23:17;3.40;99.90
21261;DHT22;10788;47.930;9.766;2023-12-20T01:25:43;3.40;99.90
21261;DHT22;10788;47.930;9.766;2023-12-20T01:28:08;3.50;99.90
21261;DHT22;10788;47.930;9.766;2023-12-20T01:30:34;3.50;99.90
21261;DHT22;10788;47.930;9.766;2023-12-20T01:33:00;3.50;99.90
21261;DHT22;10788;47.930;9.766;2023-12-20T01:35:26;3.60;99.90
21261;DHT22;10788;47.930;9.766;2023-12-20T01:37:52;3.50;99.90
21261;DHT22;10788;47.930;9.766;2023-12-20T01:40:22;3.50;99.90
21261;DHT22;10788;47.930;9.766;2023-12-20T01:42:57;3.60;99.90
21261;DHT22;10788;47.930;9.766;2023-12-20T01:45:22;3.60;99.90
21261;DHT22;10788;47.930;9.766;2023-12-20T01:47:48;3.60;99.90
21261;DHT22;10788;47.930;9.766;2023-12-20T01:50:14;3.60;99.90
21261;DHT22;10788;47.930;9.766;2023-12-20T01:52:41;3.60;99.90
21261;DHT22;10788;47.930;9.766;2023-12-20T01:55:07;3.70;99.90
21261;DHT22;10788;47.930;9.766;2023-12-20T01:57:42;3.70;99.90
21261;DHT22;10788;47.930;9.766;2023-12-20T02:00:08;3.60;99.90
21261;DHT22;10788;47.930;9.766;2023-12-20T02:02:36;3.70;99.90
21261;DHT22;10788;47.930;9.766;2023-12-20T02:05:05;3.70;99.90
21261;DHT22;10788;47.930;9.766;2023-12-20T02:07:31;3.70;99.90
21261;DHT22;10788;47.930;9.766;2023-12-20T02:09:56;3.80;99.90
21261;DHT22;10788;47.930;9.766;2023-12-20T02:12:22;3.70;99.90
21261;DHT22;10788;47.930;9.766;2023-12-20T02:14:48;3.80;99.90
21261;DHT22;10788;47.930;9.766;2023-12-20T02:17:15;3.70;99.90
21261;DHT22;10788;47.930;9.766;2023-12-20T02:19:41;3.70;99.90
21261;DHT22;10788;47.930;9.766;2023-12-20T02:22:10;3.70;99.90
21261;DHT22;10788;47.930;9.766;2023-12-20T02:24:36;3.80;99.90
21261;DHT22;10788;47.930;9.766;2023-12-20T02:27:02;3.80;99.90
21261;DHT22;10788;47.930;9.766;2023-12-20T02:29:28;3.80;99.90
21261;DHT22;10788;47.930;9.766;2023-12-20T02:31:54;3.70;99.90
21261;DHT22;10788;47.930;9.766;2023-12-20T02:34:19;3.80;99.90
21261;DHT22;10788;47.930;9.766;2023-12-20T02:36:45;3.80;99.90
21261;DHT22;10788;47.930;9.766;2023-12-20T02:39:10;3.80;99.90
21261;DHT22;10788;47.930;9.766;2023-12-20T02:41:36;3.80;99.90
21261;DHT22;10788;47.930;9.766;2023-12-20T02:44:03;3.90;99.90
21261;DHT22;10788;47.930;9.766;2023-12-20T02:46:28;3.80;99.90
21261;DHT22;10788;47.930;9.766;2023-12-20T02:48:54;3.80;99.90
21261;DHT22;10788;47.930;9.766;2023-12-20T02:51:20;3.80;99.90
21261;DHT22;10788;47.930;9.766;2023-12-20T02:53:45;3.90;99.90
21261;DHT22;10788;47.930;9.766;2023-12-20T02:56:11;3.80;99.90
21261;DHT22;10788;47.930;9.766;2023-12-20T02:58:37;3.80;99.90
21261;DHT22;10788;47.930;9.766;2023-12-20T03:01:02;3.80;99.90
21261;DHT22;10788;47.930;9.766;2023-12-20T03:03:28;3.80;99.90
21261;DHT22;10788;47.930;9.766;2023-12-20T03:05:54;3.80;99.90
21261;DHT22;10788;47.930;9.766;2023-12-20T03:08:19;3.80;99.90
21261;DHT22;10788;47.930;9.766;2023-12-20T03:10:45;3.80;99.90
21261;DHT22;10788;47.930;9.766;2023-12-20T03:13:10;3.80;99.90
21261;DHT22;10788;47.930;9.766;2023-12-20T03:15:36;3.80;99.90
21261;DHT22;10788;47.930;9.766;2023-12-20T03:18:02;3.80;99.90
21261;DHT22;10788;47.930;9.766;2023-12-20T03:20:28;3.80;99.90
21261;DHT22;10788;47.930;9.766;2023-12-20T03:22:53;3.80;99.90
21261;DHT22;10788;47.930;9.766;2023-12-20T03:25:19;3.70;99.90
21261;DHT22;10788;47.930;9.766;2023-12-20T03:27:45;3.70;99.90
21261;DHT22;10788;47.930;9.766;2023-12-20T03:30:10;3.80;99.90
21261;DHT22;10788;47.930;9.766;2023-12-20T03:32:37;3.80;99.90
21261;DHT22;10788;47.930;9.766;2023-12-20T03:35:03;3.80;99.90
21261;DHT22;10788;47.930;9.766;2023-12-20T03:37:29;3.80;99.90
21261;DHT22;10788;47.930;9.766;2023-12-20T03:39:55;3.70;99.90
21261;DHT22;10788;47.930;9.766;2023-12-20T03:42:20;3.60;99.90
21261;DHT22;10788;47.930;9.766;2023-12-20T03:44:46;3.60;99.90
21261;DHT22;10788;47.930;9.766;2023-12-20T03:47:11;3.50;99.90
21261;DHT22;10788;47.930;9.766;2023-12-20T03:49:37;3.40;99.90
21261;DHT22;10788;47.930;9.766;2023-12-20T03:52:04;3.40;99.90
21261;DHT22;10788;47.930;9.766;2023-12-20T03:54:30;3.40;99.90
21261;DHT22;10788;47.930;9.766;2023-12-20T03:56:55;3.40;99.90
21261;DHT22;10788;47.930;9.766;2023-12-20T03:59:21;3.30;99.90
21261;DHT22;10788;47.930;9.766;2023-12-20T04:01:46;3.30;99.90
21261;DHT22;10788;47.930;9.766;2023-12-20T04:04:12;3.30;99.90
21261;DHT22;10788;47.930;9.766;2023-12-20T04:06:38;3.30;99.90
21261;DHT22;10788;47.930;9.766;2023-12-20T04:09:04;3.30;99.90
21261;DHT22;10788;47.930;9.766;2023-12-20T04:11:29;3.20;99.90
21261;DHT22;10788;47.930;9.766;2023-12-20T04:13:55;3.20;99.90
21261;DHT22;10788;47.930;9.766;2023-12-20T04:16:21;3.20;99.90
21261;DHT22;10788;47.930;9.766;2023-12-20T04:18:46;3.20;99.90
21261;DHT22;10788;47.930;9.766;2023-12-20T04:21:12;3.20;99.90
21261;DHT22;10788;47.930;9.766;2023-12-20T04:23:38;3.30;99.90
21261;DHT22;10788;47.930;9.766;2023-12-20T04:26:03;3.20;99.90
21261;DHT22;10788;47.930;9.766;2023-12-20T04:28:29;3.30;99.90
21261;DHT22;10788;47.930;9.766;2023-12-20T04:30:57;3.20;99.90
21261;DHT22;10788;47.930;9.766;2023-12-20T04:33:23;3.20;99.90
21261;DHT22;10788;47.930;9.766;2023-12-20T04:35:48;3.20;99.90
21261;DHT22;10788;47.930;9.766;2023-12-20T04:38:14;3.20;99.90
21261;DHT22;10788;47.930;9.766;2023-12-20T04:40:40;3.10;99.90
21261;DHT22;10788;47.930;9.766;2023-12-20T04:43:07;3.10;99.90
21261;DHT22;10788;47.930;9.766;2023-12-20T04:45:33;3.10;99.90
21261;DHT22;10788;47.930;9.766;2023-12-20T04:47:58;3.10;99.90
21261;DHT22;10788;47.930;9.766;2023-12-20T04:50:24;3.10;99.90
21261;DHT22;10788;47.930;9.766;2023-12-20T04:52:49;3.10;99.90
21261;DHT22;10788;47.930;9.766;2023-12-20T04:55:15;3.10;99.90
21261;DHT22;10788;47.930;9.766;2023-12-20T04:57:41;3.10;99.90
21261;DHT22;10788;47.930;9.766;2023-12-20T05:00:06;3.10;99.90
21261;DHT22;10788;47.930;9.766;2023-12-20T05:02:36;3.10;99.90
21261;DHT22;10788;47.930;9.766;2023-12-20T05:05:02;3.10;99.90
21261;DHT22;10788;47.930;9.766;2023-12-20T05:07:28;3.10;99.90
21261;DHT22;10788;47.930;9.766;2023-12-20T05:09:53;3.10;99.90
21261;DHT22;10788;47.930;9.766;2023-12-20T05:12:19;3.10;99.90
21261;DHT22;10788;47.930;9.766;2023-12-20T05:14:45;3.00;99.90
21261;DHT22;10788;47.930;9.766;2023-12-20T05:17:11;3.00;99.90
21261;DHT22;10788;47.930;9.766;2023-12-20T05:19:37;3.00;99.90
21261;DHT22;10788;47.930;9.766;2023-12-20T05:22:02;3.00;99.90
21261;DHT22;10788;47.930;9.766;2023-12-20T05:24:28;3.00;99.90
21261;DHT22;10788;47.930;9.766;2023-12-20T05:26:54;3.10;99.90
21261;DHT22;10788;47.930;9.766;2023-12-20T05:29:20;3.10;99.90
21261;DHT22;10788;47.930;9.766;2023-12-20T05:31:46;3.10;99.90
21261;DHT22;10788;47.930;9.766;2023-12-20T05:34:11;3.10;99.90
21261;DHT22;10788;47.930;9.766;2023-12-20T05:36:37;3.10;99.90
21261;DHT22;10788;47.930;9.766;2023-12-20T05:39:04;3.10;99.90
21261;DHT22;10788;47.930;9.766;2023-12-20T05:41:30;3.10;99.90
21261;DHT22;10788;47.930;9.766;2023-12-20T05:43:56;3.10;99.90
21261;DHT22;10788;47.930;9.766;2023-12-20T05:46:23;3.10;99.90
21261;DHT22;10788;47.930;9.766;2023-12-20T05:48:49;3.10;99.90
21261;DHT22;10788;47.930;9.766;2023-12-20T05:51:15;3.10;99.90
21261;DHT22;10788;47.930;9.766;2023-12-20T05:53:40;3.10;99.90
21261;DHT22;10788;47.930;9.766;2023-12-20T05:56:06;3.10;99.90
21261;DHT22;10788;47.930;9.766;2023-12-20T05:58:32;3.20;99.90
21261;DHT22;10788;47.930;9.766;2023-12-20T06:00:58;3.20;99.90
21261;DHT22;10788;47.930;9.766;2023-12-20T06:03:24;3.20;99.90
21261;DHT22;10788;47.930;9.766;2023-12-20T06:05:49;3.20;99.90
21261;DHT22;10788;47.930;9.766;2023-12-20T06:08:15;3.30;99.90
21261;DHT22;10788;47.930;9.766;2023-12-20T06:10:40;3.30;99.90
21261;DHT22;10788;47.930;9.766;2023-12-20T06:13:06;3.20;99.90
21261;DHT22;10788;47.930;9.766;2023-12-20T06:15:32;3.20;99.90
21261;DHT22;10788;47.930;9.766;2023-12-20T06:17:58;3.30;99.90
21261;DHT22;10788;47.930;9.766;2023-12-20T06:20:24;3.30;99.90
21261;DHT22;10788;47.930;9.766;2023-12-20T06:22:50;3.30;99.90
21261;DHT22;10788;47.930;9.766;2023-12-20T06:25:16;3.40;99.90
21261;DHT22;10788;47.930;9.766;2023-12-20T06:27:42;3.40;99.90
21261;DHT22;10788;47.930;9.766;2023-12-20T06:30:07;3.40;99.90
21261;DHT22;10788;47.930;9.766;2023-12-20T06:32:36;3.40;99.90
21261;DHT22;10788;47.930;9.766;2023-12-20T06:35:03;3.40;99.90
21261;DHT22;10788;47.930;9.766;2023-12-20T06:37:30;3.40;99.90
21261;DHT22;10788;47.930;9.766;2023-12-20T06:39:56;3.40;99.90
21261;DHT22;10788;47.930;9.766;2023-12-20T06:42:22;3.40;99.90
21261;DHT22;10788;47.930;9.766;2023-12-20T06:44:48;3.50;99.90
21261;DHT22;10788;47.930;9.766;2023-12-20T06:47:13;3.40;99.90
21261;DHT22;10788;47.930;9.766;2023-12-20T06:49:40;3.40;99.90
21261;DHT22;10788;47.930;9.766;2023-12-20T06:52:06;3.40;99.90
21261;DHT22;10788;47.930;9.766;2023-12-20T06:54:31;3.50;99.90
21261;DHT22;10788;47.930;9.766;2023-12-20T06:56:59;3.50;99.90
21261;DHT22;10788;47.930;9.766;2023-12-20T06:59:25;3.50;99.90
21261;DHT22;10788;47.930;9.766;2023-12-20T07:01:51;3.50;99.90
21261;DHT22;10788;47.930;9.766;2023-12-20T07:04:17;3.50;99.90
21261;DHT22;10788;47.930;9.766;2023-12-20T07:06:48;3.50;99.90
21261;DHT22;10788;47.930;9.766;2023-12-20T07:09:13;3.50;99.90
21261;DHT22;10788;47.930;9.766;2023-12-20T07:11:39;3.60;99.90
21261;DHT22;10788;47.930;9.766;2023-12-20T07:14:05;3.60;99.90
21261;DHT22;10788;47.930;9.766;2023-12-20T07:16:30;3.70;99.90
21261;DHT22;10788;47.930;9.766;2023-12-20T07:18:56;3.70;99.90
21261;DHT22;10788;47.930;9.766;2023-12-20T07:21:22;3.70;99.90
21261;DHT22;10788;47.930;9.766;2023-12-20T07:23:48;3.60;99.90
21261;DHT22;10788;47.930;9.766;2023-12-20T07:26:14;3.60;99.90
21261;DHT22;10788;47.930;9.766;2023-12-20T07:28:40;3.70;99.90
21261;DHT22;10788;47.930;9.766;2023-12-20T07:31:06;3.70;99.90
21261;DHT22;10788;47.930;9.766;2023-12-20T07:33:31;3.70;99.90
21261;DHT22;10788;47.930;9.766;2023-12-20T07:35:58;3.70;99.90
21261;DHT22;10788;47.930;9.766;2023-12-20T07:38:24;3.80;99.90
21261;DHT22;10788;47.930;9.766;2023-12-20T07:40:50;3.70;99.90
21261;DHT22;10788;47.930;9.766;2023-12-20T07:43:15;3.70;99.90
21261;DHT22;10788;47.930;9.766;2023-12-20T07:45:41;3.70;99.90
21261;DHT22;10788;47.930;9.766;2023-12-20T07:48:07;3.80;99.90
21261;DHT22;10788;47.930;9.766;2023-12-20T07:50:33;3.80;99.90
21261;DHT22;10788;47.930;9.766;2023-12-20T07:52:58;3.80;99.90
21261;DHT22;10788;47.930;9.766;2023-12-20T07:55:26;3.80;99.90
21261;DHT22;10788;47.930;9.766;2023-12-20T07:57:52;3.80;99.90
21261;DHT22;10788;47.930;9.766;2023-12-20T08:00:18;3.80;99.90
21261;DHT22;10788;47.930;9.766;2023-12-20T08:02:44;3.80;99.90
21261;DHT22;10788;47.930;9.766;2023-12-20T08:05:10;3.80;99.90
21261;DHT22;10788;47.930;9.766;2023-12-20T08:07:36;3.70;99.90
21261;DHT22;10788;47.930;9.766;2023-12-20T08:10:01;3.80;99.90
21261;DHT22;10788;47.930;9.766;2023-12-20T08:12:27;3.80;99.90
21261;DHT22;10788;47.930;9.766;2023-12-20T08:14:53;3.80;99.90
21261;DHT22;10788;47.930;9.766;2023-12-20T08:17:19;3.80;99.90
21261;DHT22;10788;47.930;9.766;2023-12-20T08:19:45;3.90;99.90
21261;DHT22;10788;47.930;9.766;2023-12-20T08:22:11;4.00;99.90
21261;DHT22;10788;47.930;9.766;2023-12-20T08:24:37;3.90;99.90
21261;DHT22;10788;47.930;9.766;2023-12-20T08:27:04;4.00;99.90
21261;DHT22;10788;47.930;9.766;2023-12-20T08:29:29;4.00;99.90
21261;DHT22;10788;47.930;9.766;2023-12-20T08:31:55;3.90;99.90
21261;DHT22;10788;47.930;9.766;2023-12-20T08:34:21;4.00;99.90
21261;DHT22;10788;47.930;9.766;2023-12-20T08:36:47;4.00;99.90
21261;DHT22;10788;47.930;9.766;2023-12-20T08:39:12;3.90;99.90
21261;DHT22;10788;47.930;9.766;2023-12-20T08:41:38;4.00;99.90
21261;DHT22;10788;47.930;9.766;2023-12-20T08:44:04;3.90;99.90
21261;DHT22;10788;47.930;9.766;2023-12-20T08:46:29;4.00;99.90
21261;DHT22;10788;47.930;9.766;2023-12-20T08:48:55;4.00;99.90
21261;DHT22;10788;47.930;9.766;2023-12-20T08:51:21;4.00;99.90
21261;DHT22;10788;47.930;9.766;2023-12-20T08:53:48;4.10;99.90
21261;DHT22;10788;47.930;9.766;2023-12-20T08:56:14;4.10;99.90
21261;DHT22;10788;47.930;9.766;2023-12-20T08:58:40;4.10;99.90
21261;DHT22;10788;47.930;9.766;2023-12-20T09:01:06;4.00;99.90
21261;DHT22;10788;47.930;9.766;2023-12-20T09:03:32;4.10;99.90
21261;DHT22;10788;47.930;9.766;2023-12-20T09:05:58;4.10;99.90
21261;DHT22;10788;47.930;9.766;2023-12-20T09:08:24;4.10;99.90
21261;DHT22;10788;47.930;9.766;2023-12-20T09:10:49;4.10;99.90
21261;DHT22;10788;47.930;9.766;2023-12-20T09:13:15;4.10;99.90
21261;DHT22;10788;47.930;9.766;2023-12-20T09:15:41;4.00;99.90
21261;DHT22;10788;47.930;9.766;2023-12-20T09:18:06;4.00;99.90
21261;DHT22;10788;47.930;9.766;2023-12-20T09:20:32;4.00;99.90
21261;DHT22;10788;47.930;9.766;2023-12-20T09:22:58;4.10;99.90
21261;DHT22;10788;47.930;9.766;2023-12-20T09:25:24;4.20;99.90
21261;DHT22;10788;47.930;9.766;2023-12-20T09:27:54;4.20;99.90
21261;DHT22;10788;47.930;9.766;2023-12-20T09:30:19;4.20;99.90
21261;DHT22;10788;47.930;9.766;2023-12-20T09:32:45;4.20;99.90
21261;DHT22;10788;47.930;9.766;2023-12-20T09:35:11;4.20;99.90
21261;DHT22;10788;47.930;9.766;2023-12-20T09:37:36;4.20;99.90
21261;DHT22;10788;47.930;9.766;2023-12-20T09:40:03;4.20;99.90
21261;DHT22;10788;47.930;9.766;2023-12-20T09:42:41;4.20;99.90
21261;DHT22;10788;47.930;9.766;2023-12-20T09:45:11;4.20;99.90
21261;DHT22;10788;47.930;9.766;2023-12-20T09:47:39;4.20;99.90
21261;DHT22;10788;47.930;9.766;2023-12-20T09:50:05;4.30;99.90
21261;DHT22;10788;47.930;9.766;2023-12-20T09:52:32;4.30;99.90
21261;DHT22;10788;47.930;9.766;2023-12-20T09:54:58;4.40;99.90
21261;DHT22;10788;47.930;9.766;2023-12-20T09:57:24;4.40;99.90
21261;DHT22;10788;47.930;9.766;2023-12-20T09:59:50;4.40;99.90
21261;DHT22;10788;47.930;9.766;2023-12-20T10:02:18;4.30;99.90
21261;DHT22;10788;47.930;9.766;2023-12-20T10:04:47;4.30;99.90
21261;DHT22;10788;47.930;9.766;2023-12-20T10:07:13;4.30;99.90
21261;DHT22;10788;47.930;9.766;2023-12-20T10:09:39;4.30;99.90
21261;DHT22;10788;47.930;9.766;2023-12-20T10:12:05;4.30;99.90
21261;DHT22;10788;47.930;9.766;2023-12-20T10:14:32;4.30;99.90
21261;DHT22;10788;47.930;9.766;2023-12-20T10:17:04;4.30;99.90
21261;DHT22;10788;47.930;9.766;2023-12-20T10:19:31;4.30;99.90
21261;DHT22;10788;47.930;9.766;2023-12-20T10:22:00;4.30;99.90
21261;DHT22;10788;47.930;9.766;2023-12-20T10:24:30;4.30;99.90
21261;DHT22;10788;47.930;9.766;2023-12-20T10:27:02;4.30;99.90
21261;DHT22;10788;47.930;9.766;2023-12-20T10:29:32;4.40;99.90
21261;DHT22;10788;47.930;9.766;2023-12-20T10:31:58;4.50;99.90
21261;DHT22;10788;47.930;9.766;2023-12-20T10:34:23;4.60;99.90
21261;DHT22;10788;47.930;9.766;2023-12-20T10:36:49;4.70;99.90
21261;DHT22;10788;47.930;9.766;2023-12-20T10:39:15;4.70;99.90
21261;DHT22;10788;47.930;9.766;2023-12-20T10:41:42;4.70;99.90
21261;DHT22;10788;47.930;9.766;2023-12-20T10:44:10;4.70;99.90
21261;DHT22;10788;47.930;9.766;2023-12-20T10:46:37;4.60;99.90
21261;DHT22;10788;47.930;9.766;2023-12-20T10:49:06;4.60;99.90
21261;DHT22;10788;47.930;9.766;2023-12-20T10:51:34;4.60;99.90
21261;DHT22;10788;47.930;9.766;2023-12-20T10:54:00;4.70;99.90
21261;DHT22;10788;47.930;9.766;2023-12-20T10:56:27;4.70;99.90
21261;DHT22;10788;47.930;9.766;2023-12-20T10:58:58;4.70;99.90
21261;DHT22;10788;47.930;9.766;2023-12-20T11:01:29;4.80;99.90
21261;DHT22;10788;47.930;9.766;2023-12-20T11:03:55;4.80;99.90
21261;DHT22;10788;47.930;9.766;2023-12-20T11:14:50;4.80;99.90
21261;DHT22;10788;47.930;9.766;2023-12-20T11:17:14;4.80;99.90
21261;DHT22;10788;47.930;9.766;2023-12-20T11:22:27;4.80;99.90
21261;DHT22;10788;47.930;9.766;2023-12-20T11:24:53;4.90;99.90
21261;DHT22;10788;47.930;9.766;2023-12-20T11:27:21;4.90;99.90
21261;DHT22;10788;47.930;9.766;2023-12-20T11:29:54;4.80;99.90
21261;DHT22;10788;47.930;9.766;2023-12-20T11:34:59;4.80;99.90
21261;DHT22;10788;47.930;9.766;2023-12-20T11:37:29;4.80;99.90
21261;DHT22;10788;47.930;9.766;2023-12-20T11:40:01;4.80;99.90
21261;DHT22;10788;47.930;9.766;2023-12-20T11:42:27;4.90;99.90
21261;DHT22;10788;47.930;9.766;2023-12-20T11:44:53;4.90;99.90
21261;DHT22;10788;47.930;9.766;2023-12-20T11:47:19;5.00;99.90
21261;DHT22;10788;47.930;9.766;2023-12-20T11:49:47;5.00;99.90
21261;DHT22;10788;47.930;9.766;2023-12-20T11:52:13;5.00;99.90
21261;DHT22;10788;47.930;9.766;2023-12-20T11:54:39;5.00;99.90
21261;DHT22;10788;47.930;9.766;2023-12-20T11:57:05;5.10;99.90
21261;DHT22;10788;47.930;9.766;2023-12-20T11:59:31;5.10;99.90
21261;DHT22;10788;47.930;9.766;2023-12-20T12:01:56;5.20;99.90
21261;DHT22;10788;47.930;9.766;2023-12-20T12:04:26;5.10;99.90
21261;DHT22;10788;47.930;9.766;2023-12-20T12:06:52;5.10;99.90
21261;DHT22;10788;47.930;9.766;2023-12-20T12:09:17;5.10;99.90
21261;DHT22;10788;47.930;9.766;2023-12-20T12:11:43;5.10;99.90
21261;DHT22;10788;47.930;9.766;2023-12-20T12:14:09;5.10;99.90
21261;DHT22;10788;47.930;9.766;2023-12-20T12:16:35;5.20;99.90
21261;DHT22;10788;47.930;9.766;2023-12-20T12:19:01;5.20;99.90
21261;DHT22;10788;47.930;9.766;2023-12-20T12:21:26;5.20;99.90
21261;DHT22;10788;47.930;9.766;2023-12-20T12:24:11;5.10;99.90
21261;DHT22;10788;47.930;9.766;2023-12-20T12:26:39;5.10;99.90
21261;DHT22;10788;47.930;9.766;2023-12-20T12:29:07;5.00;99.90
21261;DHT22;10788;47.930;9.766;2023-12-20T12:31:33;5.00;99.90
21261;DHT22;10788;47.930;9.766;2023-12-20T12:33:58;5.00;99.90
21261;DHT22;10788;47.930;9.766;2023-12-20T12:36:24;5.20;99.90
21261;DHT22;10788;47.930;9.766;2023-12-20T12:38:50;5.10;99.90
21261;DHT22;10788;47.930;9.766;2023-12-20T12:41:15;5.20;99.90
21261;DHT22;10788;47.930;9.766;2023-12-20T12:43:41;5.10;99.90
21261;DHT22;10788;47.930;9.766;2023-12-20T12:46:07;5.10;99.90
21261;DHT22;10788;47.930;9.766;2023-12-20T12:48:33;5.00;99.90
21261;DHT22;10788;47.930;9.766;2023-12-20T12:50:59;4.90;99.90
21261;DHT22;10788;47.930;9.766;2023-12-20T12:53:25;4.80;99.90
21261;DHT22;10788;47.930;9.766;2023-12-20T12:55:52;4.70;99.90
21261;DHT22;10788;47.930;9.766;2023-12-20T12:58:18;4.80;99.90
21261;DHT22;10788;47.930;9.766;2023-12-20T13:00:44;4.70;99.90
21261;DHT22;10788;47.930;9.766;2023-12-20T13:03:09;4.70;99.90
21261;DHT22;10788;47.930;9.766;2023-12-20T13:05:35;4.70;99.90
21261;DHT22;10788;47.930;9.766;2023-12-20T13:08:00;4.80;99.90
21261;DHT22;10788;47.930;9.766;2023-12-20T13:10:26;4.80;99.90
21261;DHT22;10788;47.930;9.766;2023-12-20T13:12:51;4.80;99.90
21261;DHT22;10788;47.930;9.766;2023-12-20T13:15:17;4.90;99.90
21261;DHT22;10788;47.930;9.766;2023-12-20T13:17:43;4.80;99.90
21261;DHT22;10788;47.930;9.766;2023-12-20T13:20:08;4.90;99.90
21261;DHT22;10788;47.930;9.766;2023-12-20T13:22:34;4.90;99.90
21261;DHT22;10788;47.930;9.766;2023-12-20T13:25:01;4.80;99.90
21261;DHT22;10788;47.930;9.766;2023-12-20T13:27:28;4.80;99.90
21261;DHT22;10788;47.930;9.766;2023-12-20T13:29:54;4.80;99.90
21261;DHT22;10788;47.930;9.766;2023-12-20T13:32:19;4.90;99.90
21261;DHT22;10788;47.930;9.766;2023-12-20T13:34:45;4.90;99.90
21261;DHT22;10788;47.930;9.766;2023-12-20T13:37:11;4.90;99.90
21261;DHT22;10788;47.930;9.766;2023-12-20T13:39:37;4.80;99.90
21261;DHT22;10788;47.930;9.766;2023-12-20T13:42:03;4.80;99.90
21261;DHT22;10788;47.930;9.766;2023-12-20T13:44:28;4.80;99.90
21261;DHT22;10788;47.930;9.766;2023-12-20T13:46:54;4.90;99.90
21261;DHT22;10788;47.930;9.766;2023-12-20T13:49:20;5.20;99.90
21261;DHT22;10788;47.930;9.766;2023-12-20T13:51:46;5.10;99.90
21261;DHT22;10788;47.930;9.766;2023-12-20T13:54:13;5.10;99.90
21261;DHT22;10788;47.930;9.766;2023-12-20T13:56:38;5.10;99.90
21261;DHT22;10788;47.930;9.766;2023-12-20T13:59:04;5.10;99.90
21261;DHT22;10788;47.930;9.766;2023-12-20T14:01:29;5.10;99.90
21261;DHT22;10788;47.930;9.766;2023-12-20T14:03:55;5.10;99.90
21261;DHT22;10788;47.930;9.766;2023-12-20T14:06:21;5.00;99.90
21261;DHT22;10788;47.930;9.766;2023-12-20T14:08:46;5.00;99.90
21261;DHT22;10788;47.930;9.766;2023-12-20T14:11:13;4.90;99.90
21261;DHT22;10788;47.930;9.766;2023-12-20T14:13:40;4.90;99.90
21261;DHT22;10788;47.930;9.766;2023-12-20T14:16:06;4.90;99.90
21261;DHT22;10788;47.930;9.766;2023-12-20T14:18:32;4.80;99.90
21261;DHT22;10788;47.930;9.766;2023-12-20T14:20:57;4.80;99.90
21261;DHT22;10788;47.930;9.766;2023-12-20T14:23:23;4.70;99.90
21261;DHT22;10788;47.930;9.766;2023-12-20T14:25:49;4.70;99.90
21261;DHT22;10788;47.930;9.766;2023-12-20T14:28:15;4.70;99.90
21261;DHT22;10788;47.930;9.766;2023-12-20T14:30:40;4.70;99.90
21261;DHT22;10788;47.930;9.766;2023-12-20T14:33:06;4.60;99.90
21261;DHT22;10788;47.930;9.766;2023-12-20T14:35:32;4.60;99.90
21261;DHT22;10788;47.930;9.766;2023-12-20T14:37:58;4.50;99.90
21261;DHT22;10788;47.930;9.766;2023-12-20T14:40:23;4.50;99.90
21261;DHT22;10788;47.930;9.766;2023-12-20T14:42:49;4.50;99.90
21261;DHT22;10788;47.930;9.766;2023-12-20T14:45:15;4.50;99.90
21261;DHT22;10788;47.930;9.766;2023-12-20T14:47:44;4.50;99.90
21261;DHT22;10788;47.930;9.766;2023-12-20T14:50:10;4.50;99.90
21261;DHT22;10788;47.930;9.766;2023-12-20T14:52:37;4.50;99.90
21261;DHT22;10788;47.930;9.766;2023-12-20T14:55:03;4.50;99.90
21261;DHT22;10788;47.930;9.766;2023-12-20T14:57:29;4.50;99.90
21261;DHT22;10788;47.930;9.766;2023-12-20T14:59:56;4.50;99.90
21261;DHT22;10788;47.930;9.766;2023-12-20T15:02:21;4.50;99.90
21261;DHT22;10788;47.930;9.766;2023-12-20T15:04:47;4.40;99.90
21261;DHT22;10788;47.930;9.766;2023-12-20T15:07:13;4.40;99.90
21261;DHT22;10788;47.930;9.766;2023-12-20T15:09:38;4.40;99.90
21261;DHT22;10788;47.930;9.766;2023-12-20T15:12:04;4.40;99.90
21261;DHT22;10788;47.930;9.766;2023-12-20T15:14:30;4.50;99.90
21261;DHT22;10788;47.930;9.766;2023-12-20T15:16:56;4.40;99.90
21261;DHT22;10788;47.930;9.766;2023-12-20T15:19:21;4.40;99.90
21261;DHT22;10788;47.930;9.766;2023-12-20T15:21:47;4.40;99.90
21261;DHT22;10788;47.930;9.766;2023-12-20T15:24:13;4.40;99.90
21261;DHT22;10788;47.930;9.766;2023-12-20T15:26:41;4.30;99.90
21261;DHT22;10788;47.930;9.766;2023-12-20T15:29:07;4.20;99.90
21261;DHT22;10788;47.930;9.766;2023-12-20T15:31:35;4.10;99.90
21261;DHT22;10788;47.930;9.766;2023-12-20T15:34:02;4.00;99.90
21261;DHT22;10788;47.930;9.766;2023-12-20T15:36:27;3.90;99.90
21261;DHT22;10788;47.930;9.766;2023-12-20T15:38:53;3.90;99.90
21261;DHT22;10788;47.930;9.766;2023-12-20T15:41:19;3.90;99.90
21261;DHT22;10788;47.930;9.766;2023-12-20T15:43:45;4.00;99.90
21261;DHT22;10788;47.930;9.766;2023-12-20T15:46:11;3.90;99.90
21261;DHT22;10788;47.930;9.766;2023-12-20T15:48:36;3.90;99.90
21261;DHT22;10788;47.930;9.766;2023-12-20T15:51:06;3.80;99.90